Time;durP1;ratioP1;P1;durP2;ratioP2;P2;SDS_P1;SDS_P2;PMS_P1;PMS_P2;Temp;Humidity;BMP_temperature;BMP_pressure;BME280_temperature;BME280_humidity;BME280_pressure;Samples;Min_cycle;Max_cycle;Signal;HPM_P1;HPM_P2
2024/02/20 00:00:16;;;;;;;1999.90;999.90;;;11.00;99.90;;;;;;5115544;28;20096;-83
2024/02/20 00:02:42;;;;;;;1999.90;999.90;;;11.00;99.90;;;;;;5114420;28;20367;-81
2024/02/20 00:05:09;;;;;;;1999.90;999.90;;;11.00;99.90;;;;;;5113954;28;20039;-87
2024/02/20 00:07:35;;;;;;;1999.90;999.90;;;11.00;99.90;;;;;;5115789;28;20028;-86
2024/02/20 00:10:02;;;;;;;1999.90;999.90;;;11.00;99.90;;;;;;5115654;28;20035;-86
2024/02/20 00:12:28;;;;;;;1999.90;999.90;;;11.00;99.90;;;;;;5115275;28;20487;-86
2024/02/20 00:14:53;;;;;;;1999.90;999.90;;;11.00;99.90;;;;;;5115489;28;20394;-86
2024/02/20 00:17:19;;;;;;;1999.90;999.90;;;11.00;99.90;;;;;;5114991;28;20023;-86
2024/02/20 00:19:45;;;;;;;1999.90;999.90;;;11.00;99.90;;;;;;5113760;28;20024;-86
2024/02/20 00:22:11;;;;;;;1999.90;999.90;;;11.00;99.90;;;;;;5113931;28;20156;-86
2024/02/20 00:24:36;;;;;;;1999.90;999.90;;;11.10;99.90;;;;;;5114721;28;20644;-86
2024/02/20 00:27:03;;;;;;;1999.90;999.90;;;11.00;99.90;;;;;;5113344;28;20030;-87
2024/02/20 00:29:28;;;;;;;1999.90;999.90;;;11.10;99.90;;;;;;5094468;28;20432;-87
2024/02/20 00:31:54;;;;;;;1999.90;999.90;;;11.00;99.90;;;;;;5094834;28;20024;-86
2024/02/20 00:34:19;;;;;;;1999.90;999.90;;;11.00;99.90;;;;;;5094778;28;20107;-86
2024/02/20 00:36:45;;;;;;;1999.90;999.90;;;11.10;99.90;;;;;;5094560;28;20479;-86
2024/02/20 00:39:13;;;;;;;1999.90;999.90;;;11.10;99.90;;;;;;5076337;28;20032;-86
2024/02/20 00:41:38;;;;;;;1999.90;999.90;;;11.10;99.90;;;;;;5093154;28;20020;-86
2024/02/20 00:44:04;;;;;;;1999.90;999.90;;;11.10;99.90;;;;;;5094553;28;20544;-87
2024/02/20 00:46:30;;;;;;;1999.90;999.90;;;11.10;99.90;;;;;;5093638;28;20823;-87
2024/02/20 00:48:55;;;;;;;1999.90;999.90;;;11.10;99.90;;;;;;5094340;28;20054;-86
2024/02/20 00:51:22;;;;;;;1999.90;999.90;;;11.10;99.90;;;;;;5094409;28;20395;-87
2024/02/20 00:53:48;;;;;;;1999.90;999.90;;;11.10;99.90;;;;;;5094177;28;20031;-86
2024/02/20 00:56:14;;;;;;;1999.90;999.90;;;11.10;99.90;;;;;;5101451;28;20026;-86
2024/02/20 00:58:42;;;;;;;1999.90;999.90;;;11.10;99.90;;;;;;5112981;28;20027;-86
2024/02/20 01:01:10;;;;;;;1999.90;999.90;;;11.10;99.90;;;;;;5114393;28;20020;-87
2024/02/20 01:03:39;;;;;;;1999.90;999.90;;;11.10;99.90;;;;;;5114475;28;20371;-87
2024/02/20 01:06:09;;;;;;;1999.90;999.90;;;11.10;99.90;;;;;;5114451;28;20113;-86
2024/02/20 01:08:36;;;;;;;1999.90;999.90;;;11.10;99.90;;;;;;5114272;28;20068;-87
2024/02/20 01:11:04;;;;;;;1999.90;999.90;;;11.10;99.90;;;;;;5112410;28;20035;-86
2024/02/20 01:13:30;;;;;;;1999.90;999.90;;;11.10;99.90;;;;;;5114671;28;20020;-86
2024/02/20 01:15:56;;;;;;;1999.90;999.90;;;11.10;99.90;;;;;;5112706;28;20020;-84
2024/02/20 01:18:22;;;;;;;1999.90;999.90;;;11.20;99.90;;;;;;5114035;28;20023;-86
2024/02/20 01:20:48;;;;;;;1999.90;999.90;;;11.10;99.90;;;;;;5114314;28;20015;-86
2024/02/20 01:23:13;;;;;;;1999.90;999.90;;;11.10;99.90;;;;;;5098565;28;20081;-86
2024/02/20 01:25:41;;;;;;;1999.90;999.90;;;11.10;99.90;;;;;;5092039;28;20103;-87
2024/02/20 01:28:07;;;;;;;1999.90;999.90;;;11.10;99.90;;;;;;5104840;28;20043;-82
2024/02/20 01:30:33;;;;;;;1999.90;999.90;;;11.10;99.90;;;;;;5113786;28;20031;-86
2024/02/20 01:32:59;;;;;;;1999.90;999.90;;;11.10;99.90;;;;;;5107189;28;20012;-86
2024/02/20 01:35:26;;;;;;;1999.90;999.90;;;11.10;99.90;;;;;;5093362;28;20024;-86
2024/02/20 01:37:52;;;;;;;1999.90;999.90;;;11.10;99.90;;;;;;5093507;28;20028;-87
2024/02/20 01:40:19;;;;;;;1999.90;999.90;;;11.10;99.90;;;;;;5093489;28;20028;-87
2024/02/20 01:42:58;;;;;;;1999.90;999.90;;;11.10;99.90;;;;;;5093512;28;20070;-86
2024/02/20 01:45:31;;;;;;;1999.90;999.90;;;11.10;99.90;;;;;;5093371;28;20031;-86
2024/02/20 01:48:02;;;;;;;1999.90;999.90;;;11.10;99.90;;;;;;5093533;28;20306;-86
2024/02/20 01:50:33;;;;;;;1999.90;999.90;;;11.20;99.90;;;;;;5093426;28;20027;-86
2024/02/20 01:52:59;;;;;;;1999.90;999.90;;;11.20;99.90;;;;;;5093154;28;20024;-86
2024/02/20 01:55:26;;;;;;;1999.90;999.90;;;11.10;99.90;;;;;;5092593;28;20032;-86
2024/02/20 01:57:52;;;;;;;1999.90;999.90;;;11.10;99.90;;;;;;5111879;28;20485;-86
2024/02/20 02:00:18;;;;;;;1999.90;999.90;;;11.10;99.90;;;;;;5113420;28;20027;-86
2024/02/20 02:02:45;;;;;;;1999.90;999.90;;;11.20;99.90;;;;;;5112002;28;20040;-86
2024/02/20 02:05:10;;;;;;;1999.90;999.90;;;11.20;99.90;;;;;;5112067;28;20563;-86
2024/02/20 02:07:36;;;;;;;1999.90;999.90;;;11.20;99.90;;;;;;5113277;28;20024;-86
2024/02/20 02:10:02;;;;;;;1999.90;999.90;;;11.20;99.90;;;;;;5113496;28;20031;-86
2024/02/20 02:12:28;;;;;;;1999.90;999.90;;;11.20;99.90;;;;;;5111814;28;20118;-86
2024/02/20 02:14:53;;;;;;;1999.90;999.90;;;11.20;99.90;;;;;;5113502;28;20059;-86
2024/02/20 02:17:19;;;;;;;1999.90;999.90;;;11.20;99.90;;;;;;5113135;28;20024;-86
2024/02/20 02:19:45;;;;;;;1999.90;999.90;;;11.20;99.90;;;;;;5113144;28;20527;-86
2024/02/20 02:22:10;;;;;;;1999.90;999.90;;;11.20;99.90;;;;;;5106928;28;20027;-86
2024/02/20 02:24:36;;;;;;;1999.90;999.90;;;11.30;99.90;;;;;;5092480;28;20521;-86
2024/02/20 02:27:03;;;;;;;1999.90;999.90;;;11.20;99.90;;;;;;5094966;28;20391;-86
2024/02/20 02:29:29;;;;;;;1999.90;999.90;;;11.30;99.90;;;;;;5111867;28;20480;-87
2024/02/20 02:31:58;;;;;;;1999.90;999.90;;;11.30;99.90;;;;;;5111523;28;20149;-86
2024/02/20 02:34:30;;;;;;;1999.90;999.90;;;11.30;99.90;;;;;;5111669;28;20114;-86
2024/02/20 02:36:59;;;;;;;1999.90;999.90;;;11.20;99.90;;;;;;5111040;28;20031;-86
2024/02/20 02:39:25;;;;;;;1999.90;999.90;;;11.30;99.90;;;;;;5113296;28;20031;-86
2024/02/20 02:41:51;;;;;;;1999.90;999.90;;;11.30;99.90;;;;;;5113029;28;20420;-86
2024/02/20 02:44:18;;;;;;;1999.90;999.90;;;11.40;99.90;;;;;;5113138;28;20019;-87
2024/02/20 02:46:43;;;;;;;1999.90;999.90;;;11.40;99.90;;;;;;5112944;28;20019;-86
2024/02/20 02:49:09;;;;;;;1999.90;999.90;;;11.40;99.90;;;;;;5098348;28;20089;-86
2024/02/20 02:51:35;;;;;;;1999.90;999.90;;;11.50;99.90;;;;;;5092941;28;20024;-86
2024/02/20 02:54:01;;;;;;;1999.90;999.90;;;11.50;99.90;;;;;;5092610;28;20035;-87
2024/02/20 02:56:28;;;;;;;1999.90;999.90;;;11.50;99.90;;;;;;5101662;28;20031;-86
2024/02/20 02:58:55;;;;;;;1999.90;999.90;;;11.40;99.90;;;;;;5111627;28;20024;-86
2024/02/20 03:01:22;;;;;;;1999.90;999.90;;;11.40;99.90;;;;;;5113701;28;20023;-86
2024/02/20 03:03:48;;;;;;;1999.90;999.90;;;11.40;99.90;;;;;;5116669;28;20103;-84
2024/02/20 03:06:14;;;;;;;1999.90;999.90;;;11.50;99.90;;;;;;5115307;28;20077;-86
2024/02/20 03:08:44;;;;;;;1999.90;999.90;;;11.60;99.90;;;;;;5117149;28;20039;-87
2024/02/20 03:11:10;;;;;;;1999.90;999.90;;;11.60;99.90;;;;;;5117490;28;20520;-86
2024/02/20 03:13:36;;;;;;;1999.90;999.90;;;11.60;99.90;;;;;;5116716;28;20102;-86
2024/02/20 03:16:05;;;;;;;1999.90;999.90;;;11.60;99.90;;;;;;5116217;28;20106;-86
2024/02/20 03:18:32;;;;;;;1999.90;999.90;;;11.60;99.90;;;;;;5116585;28;20058;-87
2024/02/20 03:21:00;;;;;;;1999.90;999.90;;;11.60;99.90;;;;;;5098250;28;20028;-86
2024/02/20 03:23:28;;;;;;;1999.90;999.90;;;11.70;99.90;;;;;;5116228;28;20016;-87
2024/02/20 03:25:54;;;;;;;1999.90;999.90;;;11.70;99.90;;;;;;5116139;28;20061;-87
2024/02/20 03:28:19;;;;;;;1999.90;999.90;;;11.80;99.90;;;;;;5116221;28;20024;-86
2024/02/20 03:30:45;;;;;;;1999.90;999.90;;;11.80;99.90;;;;;;5116516;28;20035;-87
2024/02/20 03:33:10;;;;;;;1999.90;999.90;;;11.80;99.90;;;;;;5116143;28;20563;-86
2024/02/20 03:35:36;;;;;;;1999.90;999.90;;;11.80;99.90;;;;;;5114944;28;20054;-87
2024/02/20 03:38:02;;;;;;;1999.90;999.90;;;11.90;99.90;;;;;;5115997;28;20027;-86
2024/02/20 03:40:27;;;;;;;1999.90;999.90;;;11.90;99.90;;;;;;5116289;28;20051;-86
2024/02/20 03:42:53;;;;;;;1999.90;999.90;;;11.90;99.90;;;;;;5116157;28;20074;-86
2024/02/20 03:45:19;;;;;;;1999.90;999.90;;;11.90;99.90;;;;;;5116075;28;20015;-87
2024/02/20 03:47:45;;;;;;;1999.90;999.90;;;12.00;99.90;;;;;;5115981;28;20103;-86
2024/02/20 03:50:10;;;;;;;1999.90;999.90;;;12.00;99.90;;;;;;5114591;28;20062;-86
2024/02/20 03:52:36;;;;;;;1999.90;999.90;;;12.00;99.90;;;;;;5115424;28;20061;-86
2024/02/20 03:55:02;;;;;;;1999.90;999.90;;;12.00;99.90;;;;;;5115905;28;20032;-87
2024/02/20 03:57:28;;;;;;;1999.90;999.90;;;12.10;99.90;;;;;;5113533;28;20517;-87
2024/02/20 03:59:55;;;;;;;1999.90;999.90;;;12.10;99.90;;;;;;5114890;28;20072;-87
2024/02/20 04:02:21;;;;;;;1999.90;999.90;;;12.10;99.90;;;;;;5114501;28;20015;-86
2024/02/20 04:04:46;;;;;;;1999.90;999.90;;;12.10;99.90;;;;;;5115625;27;20032;-86
2024/02/20 04:07:12;;;;;;;1999.90;999.90;;;12.20;99.90;;;;;;5115555;28;20027;-87
2024/02/20 04:09:39;;;;;;;1999.90;999.90;;;12.10;99.90;;;;;;5114424;28;20047;-87
2024/02/20 04:12:05;;;;;;;1999.90;999.90;;;12.10;99.90;;;;;;5115484;28;20398;-87
2024/02/20 04:14:31;;;;;;;1999.90;999.90;;;12.10;99.90;;;;;;5115774;28;20490;-87
2024/02/20 04:16:56;;;;;;;1999.90;999.90;;;12.10;99.90;;;;;;5113883;28;20028;-87
2024/02/20 04:19:22;;;;;;;1999.90;999.90;;;12.10;99.90;;;;;;5115093;28;20098;-87
2024/02/20 04:21:47;;;;;;;1999.90;999.90;;;12.10;99.90;;;;;;5115144;28;20024;-87
2024/02/20 04:24:13;;;;;;;1999.90;999.90;;;12.10;99.90;;;;;;5115342;28;20058;-87
2024/02/20 04:26:39;;;;;;;1999.90;999.90;;;12.00;99.90;;;;;;5113622;28;20076;-87
2024/02/20 04:29:04;;;;;;;1999.90;999.90;;;12.00;99.90;;;;;;5115261;28;20115;-87
2024/02/20 04:31:30;;;;;;;1999.90;999.90;;;11.90;99.90;;;;;;5115242;28;20100;-87
2024/02/20 04:33:56;;;;;;;1999.90;999.90;;;11.90;99.90;;;;;;5114943;28;20128;-87
2024/02/20 04:36:22;;;;;;;1999.90;999.90;;;11.90;99.90;;;;;;5113597;28;20028;-87
2024/02/20 04:38:49;;;;;;;1999.90;999.90;;;11.90;99.90;;;;;;5114950;28;20019;-87
2024/02/20 04:41:24;;;;;;;1999.90;999.90;;;11.80;99.90;;;;;;5115373;28;20027;-87
2024/02/20 04:43:50;;;;;;;1999.90;999.90;;;11.80;99.90;;;;;;5115038;28;20065;-82
2024/02/20 04:46:15;;;;;;;1999.90;999.90;;;11.80;99.90;;;;;;5113459;28;20425;-87
2024/02/20 04:48:41;;;;;;;1999.90;999.90;;;11.80;99.90;;;;;;5114655;28;20024;-87
2024/02/20 04:51:06;;;;;;;1999.90;999.90;;;11.80;99.90;;;;;;5115201;28;20172;-86
2024/02/20 04:53:32;;;;;;;1999.90;999.90;;;11.80;99.90;;;;;;5114940;28;20035;-86
2024/02/20 04:55:58;;;;;;;1999.90;999.90;;;11.80;99.90;;;;;;5112647;28;20059;-87
2024/02/20 04:58:24;;;;;;;1999.90;999.90;;;11.80;99.90;;;;;;5114462;28;20028;-86
2024/02/20 05:00:49;;;;;;;1999.90;999.90;;;11.80;99.90;;;;;;5113072;28;20046;-87
2024/02/20 05:03:15;;;;;;;1999.90;999.90;;;11.80;99.90;;;;;;5114705;28;20028;-87
2024/02/20 05:05:40;;;;;;;1999.90;999.90;;;11.80;99.90;;;;;;5113230;28;20047;-86
2024/02/20 05:08:06;;;;;;;1999.90;999.90;;;11.80;99.90;;;;;;5114512;28;20039;-86
2024/02/20 05:10:32;;;;;;;1999.90;999.90;;;11.90;99.90;;;;;;5113376;28;20031;-86
2024/02/20 05:12:58;;;;;;;1999.90;999.90;;;11.90;99.90;;;;;;5114244;28;20031;-87
2024/02/20 05:15:23;;;;;;;1999.90;999.90;;;11.90;99.90;;;;;;5114344;28;20484;-87
2024/02/20 05:17:49;;;;;;;1999.90;999.90;;;11.90;99.90;;;;;;5112660;28;20023;-87
2024/02/20 05:20:15;;;;;;;1999.90;999.90;;;11.90;99.90;;;;;;5114175;28;20035;-87
2024/02/20 05:22:40;;;;;;;1999.90;999.90;;;11.90;99.90;;;;;;5113819;28;20383;-87
2024/02/20 05:25:06;;;;;;;1999.90;999.90;;;11.90;99.90;;;;;;5113952;28;20118;-86
2024/02/20 05:27:32;;;;;;;1999.90;999.90;;;11.90;99.90;;;;;;5101311;28;20020;-86
2024/02/20 05:29:58;;;;;;;1999.90;999.90;;;11.90;99.90;;;;;;5113240;28;20036;-87
2024/02/20 05:32:23;;;;;;;1999.90;999.90;;;11.90;99.90;;;;;;5113935;28;20098;-86
2024/02/20 05:34:49;;;;;;;1999.90;999.90;;;11.80;99.90;;;;;;5113701;28;20023;-87
2024/02/20 05:37:15;;;;;;;1999.90;999.90;;;11.90;99.90;;;;;;5112314;28;20027;-87
2024/02/20 05:39:40;;;;;;;1999.90;999.90;;;11.80;99.90;;;;;;5113840;28;20036;-87
2024/02/20 05:42:07;;;;;;;1999.90;999.90;;;11.80;99.90;;;;;;5113323;28;20094;-87
2024/02/20 05:44:33;;;;;;;1999.90;999.90;;;11.80;99.90;;;;;;5114059;28;20023;-87
2024/02/20 05:46:58;;;;;;;1999.90;999.90;;;11.80;99.90;;;;;;5095338;28;20027;-86
2024/02/20 05:49:24;;;;;;;1999.90;999.90;;;11.80;99.90;;;;;;5093112;28;20073;-87
2024/02/20 05:51:50;;;;;;;1999.90;999.90;;;11.80;99.90;;;;;;5091171;28;20032;-87
2024/02/20 05:54:15;;;;;;;1999.90;999.90;;;11.80;99.90;;;;;;5091917;28;20085;-86
2024/02/20 05:56:43;;;;;;;1999.90;999.90;;;11.90;99.90;;;;;;5103803;28;20028;-86
2024/02/20 05:59:09;;;;;;;1999.90;999.90;;;11.80;99.90;;;;;;5104770;28;20153;-86
2024/02/20 06:01:34;;;;;;;1999.90;999.90;;;11.80;99.90;;;;;;5113442;28;20053;-87
2024/02/20 06:04:04;;;;;;;1999.90;999.90;;;11.80;99.90;;;;;;5113291;28;20031;-86
2024/02/20 06:06:30;;;;;;;1999.90;999.90;;;11.80;99.90;;;;;;5112373;28;20177;-86
2024/02/20 06:08:56;;;;;;;1999.90;999.90;;;11.70;99.90;;;;;;5112810;28;20508;-87
2024/02/20 06:11:22;;;;;;;1999.90;999.90;;;11.80;99.90;;;;;;5111817;28;20028;-86
2024/02/20 06:13:49;;;;;;;1999.90;999.90;;;11.70;99.90;;;;;;5113382;28;20084;-87
2024/02/20 06:16:15;;;;;;;1999.90;999.90;;;11.70;99.90;;;;;;5112840;28;20030;-87
2024/02/20 06:18:41;;;;;;;1999.90;999.90;;;11.70;99.90;;;;;;5113022;28;20055;-87
2024/02/20 06:21:08;;;;;;;1999.90;999.90;;;11.70;99.90;;;;;;5111921;28;20016;-87
2024/02/20 06:23:42;;;;;;;1999.90;999.90;;;11.70;99.90;;;;;;5111688;28;20031;-87
2024/02/20 06:26:08;;;;;;;1999.90;999.90;;;11.70;99.90;;;;;;5112920;28;20046;-86
2024/02/20 06:28:34;;;;;;;1999.90;999.90;;;11.70;99.90;;;;;;5112824;28;20110;-87
2024/02/20 06:31:03;;;;;;;1999.90;999.90;;;11.70;99.90;;;;;;5101200;28;20028;-87
2024/02/20 06:33:30;;;;;;;1999.90;999.90;;;11.70;99.90;;;;;;5092659;28;20070;-87
2024/02/20 06:35:56;;;;;;;1999.90;999.90;;;11.70;99.90;;;;;;5096608;28;20585;-86
2024/02/20 06:38:22;;;;;;;1999.90;999.90;;;11.70;99.90;;;;;;5115984;28;20102;-86
2024/02/20 06:40:48;;;;;;;1999.90;999.90;;;11.80;99.90;;;;;;5109990;28;20130;-87
2024/02/20 06:43:13;;;;;;;1999.90;999.90;;;11.80;99.90;;;;;;5101060;28;20028;-87
2024/02/20 06:45:40;;;;;;;1999.90;999.90;;;11.80;99.90;;;;;;5109625;28;20024;-87
2024/02/20 06:48:07;;;;;;;1999.90;999.90;;;11.80;99.90;;;;;;5116673;28;20020;-87
2024/02/20 06:50:32;;;;;;;1999.90;999.90;;;11.80;99.90;;;;;;5111864;28;20031;-88
2024/02/20 06:52:58;;;;;;;1999.90;999.90;;;11.80;99.90;;;;;;5115964;28;20024;-87
2024/02/20 06:55:24;;;;;;;1999.90;999.90;;;11.80;99.90;;;;;;5110152;28;20039;-88
2024/02/20 06:57:53;;;;;;;1999.90;999.90;;;11.80;99.90;;;;;;5114726;28;20031;-88
2024/02/20 07:00:20;;;;;;;1999.90;999.90;;;11.70;99.90;;;;;;5115933;28;20073;-89
2024/02/20 07:02:45;;;;;;;1999.90;999.90;;;11.70;99.90;;;;;;5113808;28;20031;-89
2024/02/20 07:05:12;;;;;;;1999.90;999.90;;;11.60;99.90;;;;;;5097640;28;20036;-87
2024/02/20 07:07:38;;;;;;;1999.90;999.90;;;11.60;99.90;;;;;;5124462;28;20031;-89
2024/02/20 07:10:06;;;;;;;1999.90;999.90;;;11.70;99.90;;;;;;5114670;28;20049;-87
2024/02/20 07:12:33;;;;;;;1999.90;999.90;;;11.60;99.90;;;;;;5110267;28;20039;-88
2024/02/20 07:15:00;;;;;;;1999.90;999.90;;;11.70;99.90;;;;;;5119879;28;20085;-88
2024/02/20 07:17:26;;;;;;;1999.90;999.90;;;11.70;99.90;;;;;;5115286;28;20023;-88
2024/02/20 07:19:52;;;;;;;1999.90;999.90;;;11.80;99.90;;;;;;5110592;28;20035;-89
2024/02/20 07:22:18;;;;;;;1999.90;999.90;;;11.80;99.90;;;;;;5111333;28;20482;-87
2024/02/20 07:24:44;;;;;;;1999.90;999.90;;;11.90;99.90;;;;;;5110716;28;20032;-88
2024/02/20 07:27:10;;;;;;;1999.90;999.90;;;11.90;99.90;;;;;;5101976;28;20034;-89
2024/02/20 07:29:39;;;;;;;1999.90;999.90;;;12.00;99.90;;;;;;5111760;28;20085;-81
2024/02/20 07:32:05;;;;;;;1999.90;999.90;;;12.00;99.90;;;;;;5110677;28;20080;-80
2024/02/20 07:34:30;;;;;;;1999.90;999.90;;;12.00;99.90;;;;;;5104533;28;20024;-79
2024/02/20 07:36:56;;;;;;;1999.90;999.90;;;12.00;99.90;;;;;;5110208;28;20440;-78
2024/02/20 07:39:21;;;;;;;1999.90;999.90;;;12.00;99.90;;;;;;5100223;28;20028;-79
2024/02/20 07:41:47;;;;;;;1999.90;999.90;;;11.90;99.90;;;;;;5104479;28;20024;-77
2024/02/20 07:44:13;;;;;;;1999.90;999.90;;;11.90;99.90;;;;;;5104378;28;20042;-77
2024/02/20 07:46:38;;;;;;;1999.90;999.90;;;12.00;99.90;;;;;;5099675;28;20020;-77
2024/02/20 07:49:04;;;;;;;1999.90;999.90;;;12.00;99.90;;;;;;5101781;28;20032;-76
2024/02/20 07:51:31;;;;;;;1999.90;999.90;;;12.10;99.90;;;;;;5105219;28;20407;-77
2024/02/20 07:53:56;;;;;;;1999.90;999.90;;;12.20;99.90;;;;;;5102315;28;20035;-77
2024/02/20 07:56:27;;;;;;;1999.90;999.90;;;12.20;99.90;;;;;;5095750;28;20027;-77
2024/02/20 07:58:53;;;;;;;1999.90;999.90;;;12.20;99.90;;;;;;5108330;28;20081;-78
2024/02/20 08:01:19;;;;;;;1999.90;999.90;;;12.30;99.90;;;;;;5101024;28;20032;-77
2024/02/20 08:03:48;;;;;;;1999.90;999.90;;;12.30;99.90;;;;;;5106047;28;20027;-77
2024/02/20 08:06:14;;;;;;;1999.90;999.90;;;12.40;99.90;;;;;;5096738;28;20047;-77
2024/02/20 08:08:44;;;;;;;1999.90;999.90;;;12.50;99.90;;;;;;5099930;28;20118;-77
2024/02/20 08:11:09;;;;;;;1999.90;999.90;;;12.60;99.90;;;;;;5104349;28;20013;-77
2024/02/20 08:13:35;;;;;;;1999.90;999.90;;;12.70;99.90;;;;;;5104689;28;20398;-78
2024/02/20 08:16:01;;;;;;;1999.90;999.90;;;12.70;99.90;;;;;;5102054;28;20016;-78
2024/02/20 08:18:27;;;;;;;1999.90;999.90;;;12.70;99.90;;;;;;5100803;28;20448;-76
2024/02/20 08:20:54;;;;;;;1999.90;999.90;;;12.70;99.90;;;;;;5100310;28;20118;-76
2024/02/20 08:23:19;;;;;;;1999.90;999.90;;;12.70;99.90;;;;;;5105188;28;20024;-77
2024/02/20 08:25:45;;;;;;;1999.90;999.90;;;12.70;99.90;;;;;;5102078;28;20031;-76
2024/02/20 08:28:10;;;;;;;1999.90;999.90;;;12.70;99.90;;;;;;5105599;28;20032;-76
2024/02/20 08:30:36;;;;;;;1999.90;999.90;;;12.70;99.90;;;;;;5104895;28;20483;-76
2024/02/20 08:33:02;;;;;;;1999.90;999.90;;;12.60;99.90;;;;;;5100977;28;20038;-76
2024/02/20 08:35:27;;;;;;;1999.90;999.90;;;12.60;99.90;;;;;;5103395;28;20059;-77
2024/02/20 08:37:54;;;;;;;1999.90;999.90;;;12.60;99.90;;;;;;5095453;28;20161;-77
2024/02/20 08:40:21;;;;;;;1999.90;999.90;;;12.60;99.90;;;;;;5095832;28;20024;-77
2024/02/20 08:42:47;;;;;;;1999.90;999.90;;;12.60;99.90;;;;;;5107300;28;20422;-76
2024/02/20 08:45:13;;;;;;;1999.90;999.90;;;12.70;99.90;;;;;;5095566;28;20027;-76
2024/02/20 08:47:39;;;;;;;1999.90;999.90;;;12.70;99.90;;;;;;5101597;28;20039;-76
2024/02/20 08:50:05;;;;;;;1999.90;999.90;;;12.60;99.90;;;;;;5102980;28;20028;-77
2024/02/20 08:52:31;;;;;;;1999.90;999.90;;;12.60;99.90;;;;;;5095716;28;20031;-77
2024/02/20 08:54:57;;;;;;;1999.90;999.90;;;12.50;99.90;;;;;;5108720;28;20379;-77
2024/02/20 08:57:22;;;;;;;1999.90;999.90;;;12.50;99.90;;;;;;5097887;28;20028;-76
2024/02/20 08:59:48;;;;;;;1999.90;999.90;;;12.40;99.90;;;;;;5104805;28;20023;-77
2024/02/20 09:02:14;;;;;;;1999.90;999.90;;;12.50;99.90;;;;;;5110272;28;20482;-77
2024/02/20 09:04:40;;;;;;;1999.90;999.90;;;12.70;99.90;;;;;;5111304;28;20030;-78
2024/02/20 09:07:07;;;;;;;1999.90;999.90;;;12.70;99.90;;;;;;5106632;28;20052;-77
2024/02/20 09:09:33;;;;;;;1999.90;999.90;;;12.80;99.90;;;;;;5108681;28;20100;-76
2024/02/20 09:12:00;;;;;;;1999.90;999.90;;;13.10;99.90;;;;;;5100142;28;20024;-77
2024/02/20 09:14:25;;;;;;;1999.90;999.90;;;13.10;99.90;;;;;;5109604;28;20034;-76
2024/02/20 09:16:51;;;;;;;1999.90;999.90;;;13.30;99.90;;;;;;5104706;28;20138;-77
2024/02/20 09:19:17;;;;;;;1999.90;999.90;;;13.40;99.90;;;;;;5110189;28;20019;-77
2024/02/20 09:21:42;;;;;;;1999.90;999.90;;;13.60;99.90;;;;;;5099805;28;20073;-77
2024/02/20 09:24:10;;;;;;;1999.90;999.90;;;13.50;99.90;;;;;;5090000;28;20028;-79
2024/02/20 09:26:36;;;;;;;1999.90;999.90;;;13.30;99.90;;;;;;5106391;28;20055;-78
2024/02/20 09:29:02;;;;;;;1999.90;999.90;;;13.20;99.90;;;;;;5101328;28;20077;-77
2024/02/20 09:31:28;;;;;;;1999.90;999.90;;;13.10;99.90;;;;;;5105084;28;20027;-76
2024/02/20 09:33:55;;;;;;;1999.90;999.90;;;13.10;99.90;;;;;;5107853;28;20539;-78
2024/02/20 09:36:20;;;;;;;1999.90;999.90;;;13.10;99.90;;;;;;5100918;28;20031;-78
2024/02/20 09:38:46;;;;;;;1999.90;999.90;;;13.30;99.90;;;;;;5102481;28;20032;-80
2024/02/20 09:41:21;;;;;;;1999.90;999.90;;;13.60;99.90;;;;;;5106127;28;20085;-80
2024/02/20 09:43:48;;;;;;;1999.90;999.90;;;14.00;99.90;;;;;;5104282;28;20062;-79
2024/02/20 09:46:18;;;;;;;1999.90;999.90;;;14.00;99.90;;;;;;5105372;28;20020;-80
2024/02/20 09:48:46;;;;;;;1999.90;999.90;;;14.10;99.90;;;;;;5107435;28;20035;-79
2024/02/20 09:51:14;;;;;;;1999.90;999.90;;;14.00;99.90;;;;;;5101048;28;20545;-79
2024/02/20 09:53:41;;;;;;;1999.90;999.90;;;13.90;99.90;;;;;;5109481;28;20030;-81
2024/02/20 09:56:12;;;;;;;1999.90;999.90;;;13.40;99.90;;;;;;5109885;28;20023;-81
2024/02/20 09:58:38;;;;;;;1999.90;999.90;;;13.20;99.90;;;;;;5108754;28;20106;-78
2024/02/20 10:01:04;;;;;;;1999.90;999.90;;;13.40;99.90;;;;;;5100196;28;20103;-77
2024/02/20 10:03:34;;;;;;;1999.90;999.90;;;13.20;99.90;;;;;;5100750;28;20024;-78
2024/02/20 10:05:59;;;;;;;1999.90;999.90;;;13.00;99.90;;;;;;5097576;28;20044;-78
2024/02/20 10:08:27;;;;;;;1999.90;999.90;;;13.20;99.90;;;;;;5104259;28;20084;-77
2024/02/20 10:10:53;;;;;;;1999.90;999.90;;;13.30;99.90;;;;;;5107204;28;20126;-77
2024/02/20 10:13:19;;;;;;;1999.90;999.90;;;13.30;99.90;;;;;;5101053;28;20024;-77
2024/02/20 10:15:46;;;;;;;1999.90;999.90;;;13.30;99.90;;;;;;5098313;28;20024;-77
2024/02/20 10:18:14;;;;;;;1999.90;999.90;;;13.40;99.90;;;;;;5110366;28;20053;-76
2024/02/20 10:20:40;;;;;;;1999.90;999.90;;;13.30;99.90;;;;;;5102813;28;20494;-77
2024/02/20 10:23:10;;;;;;;1999.90;999.90;;;13.40;99.90;;;;;;5103169;28;20126;-79
2024/02/20 10:25:37;;;;;;;1999.90;999.90;;;13.40;99.90;;;;;;5101554;28;20394;-78
2024/02/20 10:28:06;;;;;;;1999.90;999.90;;;13.40;99.90;;;;;;5104990;28;20023;-78
2024/02/20 10:30:34;;;;;;;1999.90;999.90;;;13.60;99.90;;;;;;5094943;28;20035;-77
2024/02/20 10:33:00;;;;;;;1999.90;999.90;;;13.50;99.90;;;;;;5093606;28;20032;-77
2024/02/20 10:35:26;;;;;;;1999.90;999.90;;;13.50;99.90;;;;;;5102819;28;20370;-77
2024/02/20 10:38:02;;;;;;;1999.90;999.90;;;13.70;99.90;;;;;;5108471;28;20039;-78
2024/02/20 10:40:30;;;;;;;1999.90;999.90;;;13.50;99.90;;;;;;5110625;28;20574;-78
2024/02/20 10:42:58;;;;;;;1999.90;999.90;;;13.30;99.90;;;;;;5096317;28;20102;-78
2024/02/20 10:45:25;;;;;;;1999.90;999.90;;;13.30;99.90;;;;;;5109843;28;20111;-78
2024/02/20 10:47:52;;;;;;;1999.90;999.90;;;13.60;99.90;;;;;;5099874;28;20032;-77
2024/02/20 10:50:18;;;;;;;1999.90;999.90;;;13.70;99.90;;;;;;5093854;28;20040;-77
2024/02/20 10:52:44;;;;;;;1999.90;999.90;;;13.70;99.90;;;;;;5092368;28;20028;-79
2024/02/20 10:55:11;;;;;;;1999.90;999.90;;;13.60;99.90;;;;;;5104411;28;20020;-78
2024/02/20 10:57:38;;;;;;;1999.90;999.90;;;13.50;99.90;;;;;;5099303;28;20055;-77
2024/02/20 11:00:08;;;;;;;1999.90;999.90;;;13.50;99.90;;;;;;5096861;28;20078;-77
2024/02/20 11:02:48;;;;;;;1999.90;999.90;;;13.80;99.90;;;;;;5105545;28;20026;-77
2024/02/20 11:05:14;;;;;;;1999.90;999.90;;;14.00;99.90;;;;;;5092828;28;20074;-76
2024/02/20 11:07:40;;;;;;;1999.90;999.90;;;13.80;99.90;;;;;;5099275;28;20063;-77
2024/02/20 11:10:07;;;;;;;1999.90;999.90;;;13.80;99.90;;;;;;5097067;28;20036;-76
2024/02/20 11:12:33;;;;;;;1999.90;999.90;;;13.90;99.90;;;;;;5104655;28;20042;-77
2024/02/20 11:15:13;;;;;;;1999.90;999.90;;;13.80;99.90;;;;;;5105131;28;20020;-76
2024/02/20 11:17:40;;;;;;;1999.90;999.90;;;13.80;99.90;;;;;;5100535;28;20039;-77
2024/02/20 11:20:13;;;;;;;1999.90;999.90;;;14.10;99.90;;;;;;5096425;28;20530;-77
2024/02/20 11:22:40;;;;;;;1999.90;999.90;;;14.20;99.90;;;;;;5104719;28;20016;-79
2024/02/20 11:25:09;;;;;;;1999.90;999.90;;;13.90;99.90;;;;;;5093550;28;20031;-78
2024/02/20 11:27:46;;;;;;;1999.90;999.90;;;13.50;99.90;;;;;;5096729;28;20582;-77
2024/02/20 11:30:23;;;;;;;1999.90;999.90;;;13.20;99.90;;;;;;5104953;28;20051;-77
2024/02/20 11:32:50;;;;;;;1999.90;999.90;;;13.00;99.90;;;;;;5103041;28;20056;-77
2024/02/20 11:35:36;;;;;;;1999.90;999.90;;;13.00;99.90;;;;;;5104548;28;20027;-77
2024/02/20 11:38:03;;;;;;;1999.90;999.90;;;13.00;99.90;;;;;;5108371;28;20101;-77
2024/02/20 11:40:33;;;;;;;1999.90;999.90;;;13.00;99.90;;;;;;5097388;28;20020;-77
2024/02/20 11:43:00;;;;;;;1999.90;999.90;;;13.10;99.90;;;;;;5092487;28;20414;-77
2024/02/20 11:45:29;;;;;;;1999.90;999.90;;;13.30;99.90;;;;;;5107145;28;20168;-78
2024/02/20 11:48:11;;;;;;;1999.90;999.90;;;13.30;99.90;;;;;;5094653;28;20024;-78
2024/02/20 11:50:41;;;;;;;1999.90;999.90;;;13.00;99.90;;;;;;5096543;28;20028;-78
2024/02/20 11:53:08;;;;;;;1999.90;999.90;;;13.00;99.90;;;;;;5096632;28;20072;-78
2024/02/20 11:55:35;;;;;;;1999.90;999.90;;;13.00;99.90;;;;;;5099173;28;20548;-79